Grieskirchen, Austria
Current Conditions -  °F | °C
As of 5:20 AM on Thursday 23 Oct 2014 (Local Time) from LOWL Reporting Station
Moderate Rain Moderate Rain  
Wind Chill: 42°   Ceiling: 1200
Heat Index: 46°   Visibility: 6mi
Dew Point: 45°   Wind: 8mph
Humidity: 93%   Direction: 310°NW
Pressure: 29.8"   Gusts: NA
Location:  48.23°N, 13.83°E
Report Text: LOWL 230320Z 31007KT 9999 RA FEW005 BKN012 BKN027 08/07 Q1009 TEMPO SCT012 BKN027
Loading
Personal Weather Stations






























Interactive Weather Map
Tropical Storm Tracking
New forecast layout! Learn more

10-Day Weather Forecast

Advertisements
Track Severe Weather on mobile